Time;durP1;ratioP1;P1;durP2;ratioP2;P2;SDS_P1;SDS_P2;PMS_P1;PMS_P2;Temp;Humidity;BMP_temperature;BMP_pressure;BME280_temperature;BME280_humidity;BME280_pressure;Samples;Min_cycle;Max_cycle;Signal;HPM_P1;HPM_P2
2023/09/28 00:02:06;;;;;;;;;;;21.10;75.50;;;;;;5114114;28;19912;-54
2023/09/28 00:04:32;;;;;;;;;;;21.10;75.60;;;;;;5095794;28;19908;-55
2023/09/28 00:06:58;;;;;;;;;;;21.10;75.40;;;;;;5113932;28;19907;-54
2023/09/28 00:09:24;;;;;;;;;;;21.10;75.60;;;;;;5113754;28;19961;-55
2023/09/28 00:11:50;;;;;;;;;;;21.10;75.90;;;;;;5113918;28;19908;-55
2023/09/28 00:14:15;;;;;;;;;;;21.10;76.00;;;;;;5113954;28;20010;-54
2023/09/28 00:16:41;;;;;;;;;;;21.00;76.10;;;;;;5095333;28;20409;-55
2023/09/28 00:19:07;;;;;;;;;;;21.10;76.10;;;;;;5113865;28;19960;-55
2023/09/28 00:21:32;;;;;;;;;;;21.00;75.90;;;;;;5113586;28;19908;-55
2023/09/28 00:23:58;;;;;;;;;;;21.00;76.30;;;;;;5113583;28;20356;-55
2023/09/28 00:26:23;;;;;;;;;;;21.00;76.00;;;;;;5095380;28;20451;-57
2023/09/28 00:28:50;;;;;;;;;;;21.00;76.40;;;;;;5113629;28;20279;-55
2023/09/28 00:31:17;;;;;;;;;;;21.00;76.20;;;;;;5113419;28;19912;-54
2023/09/28 00:33:43;;;;;;;;;;;21.00;76.30;;;;;;5113541;28;19912;-54
2023/09/28 00:36:08;;;;;;;;;;;21.00;76.10;;;;;;5113450;28;19918;-55
2023/09/28 00:38:34;;;;;;;;;;;21.00;76.30;;;;;;5113427;28;19994;-55
2023/09/28 00:40:59;;;;;;;;;;;21.00;76.40;;;;;;5113487;28;19954;-55
2023/09/28 00:43:25;;;;;;;;;;;21.00;76.30;;;;;;5113450;28;19911;-55
2023/09/28 00:45:51;;;;;;;;;;;21.00;76.20;;;;;;5113380;28;19912;-54
2023/09/28 00:48:16;;;;;;;;;;;21.00;76.20;;;;;;5095240;28;19930;-55
2023/09/28 00:50:42;;;;;;;;;;;21.00;76.40;;;;;;5113176;28;19955;-54
2023/09/28 00:53:10;;;;;;;;;;;21.00;76.50;;;;;;5095095;28;19915;-55
2023/09/28 00:55:39;;;;;;;;;;;21.00;76.70;;;;;;5113226;28;19916;-55
2023/09/28 00:58:05;;;;;;;;;;;20.90;76.60;;;;;;5113239;28;19939;-54
2023/09/28 01:00:34;;;;;;;;;;;20.90;76.60;;;;;;5095183;28;19908;-57
2023/09/28 01:03:02;;;;;;;;;;;21.00;76.80;;;;;;5113238;28;19908;-54
2023/09/28 01:05:33;;;;;;;;;;;21.00;76.80;;;;;;5113224;28;19907;-56
2023/09/28 01:08:19;;;;;;;;;;;20.90;76.80;;;;;;5120001;28;19990;-54
2023/09/28 01:10:45;;;;;;;;;;;20.90;76.90;;;;;;5113229;28;20415;-55
2023/09/28 01:13:12;;;;;;;;;;;21.00;76.90;;;;;;5094976;28;19958;-54
2023/09/28 01:15:46;;;;;;;;;;;20.90;77.00;;;;;;5113043;28;20332;-55
2023/09/28 01:18:15;;;;;;;;;;;20.90;76.90;;;;;;5113028;28;19915;-55
2023/09/28 01:20:43;;;;;;;;;;;20.90;76.90;;;;;;5113091;28;20364;-55
2023/09/28 01:23:08;;;;;;;;;;;20.90;77.00;;;;;;5112904;28;19953;-55
2023/09/28 01:25:34;;;;;;;;;;;20.90;77.00;;;;;;5112911;28;20408;-55
2023/09/28 01:28:00;;;;;;;;;;;20.90;77.00;;;;;;5112963;28;19958;-54
2023/09/28 01:30:26;;;;;;;;;;;20.90;77.10;;;;;;5112947;28;20371;-55
2023/09/28 01:32:52;;;;;;;;;;;20.90;77.10;;;;;;5113976;28;19908;-55
2023/09/28 01:35:18;;;;;;;;;;;20.90;77.10;;;;;;5116688;28;19957;-54
2023/09/28 01:38:02;;;;;;;;;;;20.90;76.90;;;;;;5117007;28;20248;-55
2023/09/28 01:40:27;;;;;;;;;;;20.90;76.80;;;;;;5116669;28;19986;-54
2023/09/28 01:42:53;;;;;;;;;;;20.90;77.00;;;;;;5116713;28;20039;-55
2023/09/28 01:45:19;;;;;;;;;;;20.90;77.10;;;;;;5116574;28;20179;-55
2023/09/28 01:47:44;;;;;;;;;;;20.90;77.00;;;;;;5116602;28;20429;-54
2023/09/28 01:50:09;;;;;;;;;;;20.90;77.00;;;;;;5116776;28;19908;-55
2023/09/28 01:52:35;;;;;;;;;;;20.90;76.90;;;;;;5116301;28;19923;-55
2023/09/28 01:55:01;;;;;;;;;;;20.90;76.80;;;;;;5116425;28;19953;-55
2023/09/28 01:57:26;;;;;;;;;;;20.90;76.90;;;;;;5116472;28;19955;-55
2023/09/28 01:59:52;;;;;;;;;;;20.90;77.00;;;;;;5116269;28;19912;-54
2023/09/28 02:02:17;;;;;;;;;;;20.90;76.90;;;;;;5116370;28;19908;-54
2023/09/28 02:04:43;;;;;;;;;;;20.90;77.10;;;;;;5116308;28;19908;-55
2023/09/28 02:07:09;;;;;;;;;;;20.90;77.10;;;;;;5116072;28;20257;-55
2023/09/28 02:09:34;;;;;;;;;;;20.90;76.80;;;;;;5116207;28;19996;-55
2023/09/28 02:12:00;;;;;;;;;;;20.90;77.00;;;;;;5116208;28;19907;-55
2023/09/28 02:14:26;;;;;;;;;;;20.90;77.30;;;;;;5080893;28;19912;-55
2023/09/28 02:16:51;;;;;;;;;;;20.90;77.00;;;;;;5115944;28;19912;-55
2023/09/28 02:19:17;;;;;;;;;;;20.90;77.00;;;;;;5116000;28;20295;-55
2023/09/28 02:21:42;;;;;;;;;;;20.90;77.00;;;;;;5116012;28;19915;-55
2023/09/28 02:24:08;;;;;;;;;;;20.90;77.20;;;;;;5115796;28;19908;-55
2023/09/28 02:26:34;;;;;;;;;;;20.90;77.30;;;;;;5115769;28;19998;-55
2023/09/28 02:29:00;;;;;;;;;;;20.90;77.10;;;;;;5115716;28;19951;-55
2023/09/28 02:31:25;;;;;;;;;;;20.90;76.90;;;;;;5097628;28;20354;-55
2023/09/28 02:33:51;;;;;;;;;;;20.90;77.10;;;;;;5116031;28;19956;-55
2023/09/28 02:36:16;;;;;;;;;;;20.90;77.20;;;;;;5115613;28;19911;-55
2023/09/28 02:38:42;;;;;;;;;;;20.90;77.20;;;;;;5115594;28;20406;-55
2023/09/28 02:41:15;;;;;;;;;;;20.90;77.00;;;;;;5115502;28;20390;-55
2023/09/28 02:43:41;;;;;;;;;;;20.90;77.40;;;;;;5114970;28;20002;-55
2023/09/28 02:46:06;;;;;;;;;;;20.90;77.50;;;;;;5114743;28;20336;-55
2023/09/28 02:48:32;;;;;;;;;;;20.90;77.40;;;;;;5097312;28;19930;-56
2023/09/28 02:50:57;;;;;;;;;;;20.90;77.30;;;;;;5115230;28;19938;-56
2023/09/28 02:53:22;;;;;;;;;;;20.80;77.10;;;;;;5115355;28;19908;-55
2023/09/28 02:55:48;;;;;;;;;;;20.90;77.20;;;;;;5115165;28;19919;-56
2023/09/28 02:58:13;;;;;;;;;;;20.80;77.40;;;;;;5115434;28;19914;-56
2023/09/28 03:00:39;;;;;;;;;;;20.80;77.50;;;;;;5115199;28;19950;-56
2023/09/28 03:03:05;;;;;;;;;;;20.80;77.30;;;;;;5115274;28;20433;-55
2023/09/28 03:05:32;;;;;;;;;;;20.80;77.30;;;;;;5115342;28;19907;-56
2023/09/28 03:07:58;;;;;;;;;;;20.80;77.50;;;;;;5115087;28;19915;-54
2023/09/28 03:10:24;;;;;;;;;;;20.80;77.60;;;;;;5115010;28;19908;-55
2023/09/28 03:12:51;;;;;;;;;;;20.80;78.40;;;;;;5115017;28;19957;-56
2023/09/28 03:15:17;;;;;;;;;;;20.80;78.50;;;;;;5114766;28;19968;-56
2023/09/28 03:17:43;;;;;;;;;;;20.80;77.50;;;;;;5114898;28;19908;-55
2023/09/28 03:20:18;;;;;;;;;;;20.80;77.60;;;;;;5114823;28;19915;-56
2023/09/28 03:22:44;;;;;;;;;;;20.80;77.50;;;;;;5114731;28;20000;-56
2023/09/28 03:25:16;;;;;;;;;;;20.80;77.50;;;;;;5096524;28;20302;-55
2023/09/28 03:27:42;;;;;;;;;;;20.80;77.70;;;;;;5096336;28;19914;-55
2023/09/28 03:30:09;;;;;;;;;;;20.80;77.70;;;;;;5096400;28;19939;-55
2023/09/28 03:32:34;;;;;;;;;;;20.80;78.40;;;;;;5114476;28;20302;-55
2023/09/28 03:35:00;;;;;;;;;;;20.80;77.80;;;;;;5114617;28;19952;-56
2023/09/28 03:37:26;;;;;;;;;;;20.80;77.70;;;;;;5114109;28;19919;-55
2023/09/28 03:39:52;;;;;;;;;;;20.80;77.60;;;;;;5096153;28;19908;-56
2023/09/28 03:42:17;;;;;;;;;;;20.80;77.80;;;;;;5114552;28;19908;-56
2023/09/28 03:44:42;;;;;;;;;;;20.80;77.50;;;;;;5096117;28;19907;-55
2023/09/28 03:47:08;;;;;;;;;;;20.80;77.40;;;;;;5114366;28;19915;-55
2023/09/28 03:49:33;;;;;;;;;;;20.80;77.60;;;;;;5114156;28;20388;-55
2023/09/28 03:52:00;;;;;;;;;;;20.80;77.40;;;;;;5113948;28;19915;-55
2023/09/28 03:54:26;;;;;;;;;;;20.80;77.40;;;;;;5114043;28;19919;-55
2023/09/28 03:56:51;;;;;;;;;;;20.80;77.30;;;;;;5113429;28;19940;-55
2023/09/28 03:59:17;;;;;;;;;;;20.80;77.60;;;;;;5114004;28;19930;-56
2023/09/28 04:01:44;;;;;;;;;;;20.80;77.50;;;;;;5113872;28;19907;-56
2023/09/28 04:04:10;;;;;;;;;;;20.80;77.50;;;;;;5113902;28;19908;-54
2023/09/28 04:06:35;;;;;;;;;;;20.80;77.40;;;;;;5113852;28;19918;-55
2023/09/28 04:09:03;;;;;;;;;;;20.80;77.40;;;;;;5113824;28;20007;-55
2023/09/28 04:11:28;;;;;;;;;;;20.80;77.30;;;;;;5113811;28;19908;-55
2023/09/28 04:13:54;;;;;;;;;;;20.80;77.30;;;;;;5113735;28;20355;-55
2023/09/28 04:16:19;;;;;;;;;;;20.70;77.30;;;;;;5113919;28;20294;-55
2023/09/28 04:18:45;;;;;;;;;;;20.70;77.20;;;;;;5113645;28;19971;-55
2023/09/28 04:21:10;;;;;;;;;;;20.80;77.20;;;;;;5113605;28;19907;-56
2023/09/28 04:23:35;;;;;;;;;;;20.70;77.30;;;;;;5113620;28;19908;-55
2023/09/28 04:26:01;;;;;;;;;;;20.80;77.40;;;;;;5113602;28;20002;-56
2023/09/28 04:28:26;;;;;;;;;;;20.80;77.20;;;;;;5113865;28;19914;-55
2023/09/28 04:30:52;;;;;;;;;;;20.80;77.30;;;;;;5113589;28;19989;-55
2023/09/28 04:33:17;;;;;;;;;;;20.80;77.20;;;;;;5113397;28;19911;-56
2023/09/28 04:35:43;;;;;;;;;;;20.80;77.20;;;;;;5113371;28;19912;-54
2023/09/28 04:38:08;;;;;;;;;;;20.70;77.10;;;;;;5113374;28;19926;-55
2023/09/28 04:40:34;;;;;;;;;;;20.80;77.10;;;;;;5113374;28;20282;-56
2023/09/28 04:42:59;;;;;;;;;;;20.70;77.20;;;;;;5094994;28;19915;-55
2023/09/28 04:45:25;;;;;;;;;;;20.70;77.50;;;;;;5095125;28;19912;-54
2023/09/28 04:47:50;;;;;;;;;;;20.70;77.20;;;;;;5113237;28;19959;-56
2023/09/28 04:50:16;;;;;;;;;;;20.70;77.40;;;;;;5113272;28;19960;-55
2023/09/28 04:52:44;;;;;;;;;;;20.70;77.50;;;;;;5113103;28;19972;-56
2023/09/28 04:55:10;;;;;;;;;;;20.70;77.50;;;;;;5113181;28;19914;-55
2023/09/28 04:57:36;;;;;;;;;;;20.70;77.80;;;;;;5113201;28;20364;-55
2023/09/28 05:00:06;;;;;;;;;;;20.70;77.70;;;;;;5113195;28;19908;-55
2023/09/28 05:02:32;;;;;;;;;;;20.70;77.70;;;;;;5113509;28;20382;-55
2023/09/28 05:04:57;;;;;;;;;;;20.70;77.60;;;;;;5113171;28;19957;-54
2023/09/28 05:07:23;;;;;;;;;;;20.70;77.60;;;;;;5113311;28;19908;-55
2023/09/28 05:09:48;;;;;;;;;;;20.70;77.70;;;;;;5117257;28;19908;-56
2023/09/28 05:12:14;;;;;;;;;;;20.70;77.50;;;;;;5098752;28;19973;-54
2023/09/28 05:14:41;;;;;;;;;;;20.70;77.70;;;;;;5117001;28;20009;-56
2023/09/28 05:17:06;;;;;;;;;;;20.70;77.50;;;;;;5117025;28;19938;-55
2023/09/28 05:19:32;;;;;;;;;;;20.70;77.40;;;;;;5117155;28;19908;-56
2023/09/28 05:21:57;;;;;;;;;;;20.70;77.50;;;;;;5116696;28;19908;-55
2023/09/28 05:24:23;;;;;;;;;;;20.70;77.50;;;;;;5116853;28;20289;-55
2023/09/28 05:26:48;;;;;;;;;;;20.70;77.40;;;;;;5117072;28;20053;-55
2023/09/28 05:29:14;;;;;;;;;;;20.70;77.40;;;;;;5116674;28;19907;-56
2023/09/28 05:31:40;;;;;;;;;;;20.70;77.50;;;;;;5116711;28;19908;-55
2023/09/28 05:34:06;;;;;;;;;;;20.70;77.50;;;;;;5116524;28;20295;-55
2023/09/28 05:36:31;;;;;;;;;;;20.70;77.70;;;;;;5116503;28;19919;-55
2023/09/28 05:38:56;;;;;;;;;;;20.70;77.60;;;;;;5116588;28;19908;-55
2023/09/28 05:41:22;;;;;;;;;;;20.70;77.50;;;;;;5116697;28;19947;-56
2023/09/28 05:43:48;;;;;;;;;;;20.70;77.40;;;;;;5116626;28;19912;-56
2023/09/28 05:46:14;;;;;;;;;;;20.70;77.40;;;;;;5116583;28;19999;-56
2023/09/28 05:48:40;;;;;;;;;;;20.70;77.60;;;;;;5116420;28;19968;-56
2023/09/28 05:51:05;;;;;;;;;;;20.70;78.40;;;;;;5097915;28;20331;-55
2023/09/28 05:53:31;;;;;;;;;;;20.70;77.80;;;;;;5116333;28;19907;-55
2023/09/28 05:55:56;;;;;;;;;;;20.60;77.70;;;;;;5116351;28;19920;-55
2023/09/28 05:58:21;;;;;;;;;;;20.60;77.80;;;;;;5116307;28;19914;-55
2023/09/28 06:00:47;;;;;;;;;;;20.70;77.90;;;;;;5098069;28;19961;-56
2023/09/28 06:03:13;;;;;;;;;;;20.60;77.90;;;;;;5116265;28;20006;-56
2023/09/28 06:05:40;;;;;;;;;;;20.60;77.70;;;;;;5116232;28;20427;-56
2023/09/28 06:08:05;;;;;;;;;;;20.60;77.70;;;;;;5081012;28;19943;-55
2023/09/28 06:10:31;;;;;;;;;;;20.60;77.90;;;;;;5116000;28;19933;-56
2023/09/28 06:12:57;;;;;;;;;;;20.60;77.90;;;;;;5097861;28;19915;-55
2023/09/28 06:15:23;;;;;;;;;;;20.60;77.90;;;;;;5116011;28;20368;-56
2023/09/28 06:17:48;;;;;;;;;;;20.60;78.10;;;;;;5116090;28;19908;-56
2023/09/28 06:20:14;;;;;;;;;;;20.60;78.10;;;;;;5115531;28;19908;-55
2023/09/28 06:22:40;;;;;;;;;;;20.60;77.90;;;;;;5097590;28;19914;-54
2023/09/28 06:25:07;;;;;;;;;;;20.60;77.90;;;;;;5115665;28;19912;-56
2023/09/28 06:27:33;;;;;;;;;;;20.60;77.90;;;;;;5115593;28;20407;-55
2023/09/28 06:29:58;;;;;;;;;;;20.70;78.10;;;;;;5115594;28;19958;-55
2023/09/28 06:32:24;;;;;;;;;;;20.60;77.90;;;;;;5115501;28;19973;-56
2023/09/28 06:34:50;;;;;;;;;;;20.60;78.90;;;;;;5097290;28;19907;-55
2023/09/28 06:37:15;;;;;;;;;;;20.60;78.20;;;;;;5115416;28;19916;-56
2023/09/28 06:39:41;;;;;;;;;;;20.60;78.40;;;;;;5115481;28;20280;-56
2023/09/28 06:42:06;;;;;;;;;;;20.60;78.30;;;;;;5097171;28;19914;-55
2023/09/28 06:44:33;;;;;;;;;;;20.60;78.40;;;;;;5097179;28;19915;-56
2023/09/28 06:46:59;;;;;;;;;;;20.60;78.30;;;;;;5115312;28;19929;-56
2023/09/28 06:49:26;;;;;;;;;;;20.60;78.30;;;;;;5115321;28;20349;-56
2023/09/28 06:51:52;;;;;;;;;;;20.60;78.40;;;;;;5096707;28;19922;-55
2023/09/28 06:54:19;;;;;;;;;;;20.60;78.40;;;;;;5115111;28;19930;-55
2023/09/28 06:56:48;;;;;;;;;;;20.50;78.60;;;;;;5115053;28;20435;-56
2023/09/28 06:59:13;;;;;;;;;;;20.60;78.50;;;;;;5115118;28;19912;-56
2023/09/28 07:01:39;;;;;;;;;;;20.60;78.70;;;;;;5115051;28;20392;-55
2023/09/28 07:04:06;;;;;;;;;;;20.50;78.60;;;;;;5115021;28;19927;-56
2023/09/28 07:06:33;;;;;;;;;;;20.50;78.50;;;;;;5114973;28;19956;-56
2023/09/28 07:08:59;;;;;;;;;;;20.60;78.80;;;;;;5114933;28;20367;-56
2023/09/28 07:11:26;;;;;;;;;;;20.50;78.70;;;;;;5114829;28;19914;-56
2023/09/28 07:13:51;;;;;;;;;;;20.60;78.70;;;;;;5114791;28;20380;-56
2023/09/28 07:16:17;;;;;;;;;;;20.50;78.60;;;;;;5096288;28;19912;-54
2023/09/28 07:18:42;;;;;;;;;;;20.60;78.70;;;;;;5114630;28;19955;-56
2023/09/28 07:21:08;;;;;;;;;;;20.50;78.60;;;;;;5114789;28;20329;-55
2023/09/28 07:23:34;;;;;;;;;;;20.50;78.70;;;;;;5114686;28;19914;-55
2023/09/28 07:26:00;;;;;;;;;;;20.60;78.80;;;;;;5114539;28;19953;-55
2023/09/28 07:28:26;;;;;;;;;;;20.50;78.80;;;;;;5114485;28;19912;-55
2023/09/28 07:30:52;;;;;;;;;;;20.60;78.90;;;;;;5095521;28;19914;-57
2023/09/28 07:33:17;;;;;;;;;;;20.50;78.90;;;;;;5114715;28;20329;-56
2023/09/28 07:35:43;;;;;;;;;;;20.50;79.00;;;;;;5114607;28;19912;-56
2023/09/28 07:38:08;;;;;;;;;;;20.50;79.20;;;;;;5114337;28;19961;-56
2023/09/28 07:40:34;;;;;;;;;;;20.50;79.20;;;;;;5114427;28;19952;-54
2023/09/28 07:42:59;;;;;;;;;;;20.50;79.20;;;;;;5114206;28;19907;-55
2023/09/28 07:45:25;;;;;;;;;;;20.50;79.20;;;;;;5114242;28;20010;-55
2023/09/28 07:47:50;;;;;;;;;;;20.50;79.20;;;;;;5096053;28;20372;-55
2023/09/28 07:50:16;;;;;;;;;;;20.50;79.20;;;;;;5113996;28;19911;-56
2023/09/28 07:52:42;;;;;;;;;;;20.50;79.20;;;;;;5114099;28;19920;-56
2023/09/28 07:55:07;;;;;;;;;;;20.50;79.20;;;;;;5095431;28;19991;-55
2023/09/28 07:57:33;;;;;;;;;;;20.50;79.20;;;;;;5113634;28;19970;-55
2023/09/28 07:59:59;;;;;;;;;;;20.50;79.30;;;;;;5113957;28;19954;-56
2023/09/28 08:02:25;;;;;;;;;;;20.50;79.50;;;;;;5113789;28;19914;-56
2023/09/28 08:04:53;;;;;;;;;;;20.50;79.50;;;;;;5113957;28;19908;-56
2023/09/28 08:07:18;;;;;;;;;;;20.50;79.70;;;;;;5096026;28;20348;-57
2023/09/28 08:09:44;;;;;;;;;;;20.50;79.90;;;;;;5113939;28;19998;-56
2023/09/28 08:12:09;;;;;;;;;;;20.50;80.00;;;;;;5113851;28;19960;-55
2023/09/28 08:14:35;;;;;;;;;;;20.50;79.70;;;;;;5113749;28;19919;-56
2023/09/28 08:17:00;;;;;;;;;;;20.50;80.00;;;;;;5113622;28;19919;-56
2023/09/28 08:19:26;;;;;;;;;;;20.60;80.20;;;;;;5113630;28;20325;-55
2023/09/28 08:21:51;;;;;;;;;;;20.60;80.60;;;;;;5113565;28;19908;-56
2023/09/28 08:24:17;;;;;;;;;;;20.70;80.60;;;;;;5113611;28;19908;-56
2023/09/28 08:26:43;;;;;;;;;;;20.70;80.20;;;;;;5113524;28;19908;-56
2023/09/28 08:29:08;;;;;;;;;;;20.80;79.80;;;;;;5113350;28;19914;-56
2023/09/28 08:31:33;;;;;;;;;;;20.80;79.60;;;;;;5113451;28;19946;-55
2023/09/28 08:33:59;;;;;;;;;;;20.90;79.60;;;;;;5113372;28;19958;-56
2023/09/28 08:36:25;;;;;;;;;;;20.90;79.50;;;;;;5113250;28;19915;-56
2023/09/28 08:38:51;;;;;;;;;;;21.00;79.30;;;;;;5113375;28;19931;-56
2023/09/28 08:41:16;;;;;;;;;;;21.10;78.80;;;;;;5113178;28;20364;-56
2023/09/28 08:44:08;;;;;;;;;;;21.20;78.50;;;;;;5113191;28;19951;-55
2023/09/28 08:46:38;;;;;;;;;;;21.30;78.20;;;;;;5108380;28;19951;-56
2023/09/28 08:49:05;;;;;;;;;;;21.30;77.90;;;;;;5095767;28;19908;-56
2023/09/28 08:51:31;;;;;;;;;;;21.30;77.90;;;;;;5113027;28;19961;-55
2023/09/28 08:53:57;;;;;;;;;;;21.30;77.60;;;;;;5113144;28;19908;-56
2023/09/28 08:56:23;;;;;;;;;;;21.30;77.70;;;;;;5094765;28;19916;-56
2023/09/28 08:58:48;;;;;;;;;;;21.40;77.50;;;;;;5113245;28;20352;-56
2023/09/28 09:01:14;;;;;;;;;;;21.40;77.30;;;;;;5113173;28;19920;-56
2023/09/28 09:03:40;;;;;;;;;;;21.50;77.30;;;;;;5113128;28;19907;-55
2023/09/28 09:06:06;;;;;;;;;;;21.50;77.10;;;;;;5113296;28;19918;-56
2023/09/28 09:08:35;;;;;;;;;;;21.50;77.00;;;;;;5113002;28;19942;-56
2023/09/28 09:11:01;;;;;;;;;;;21.50;77.10;;;;;;5113216;28;19908;-55
2023/09/28 09:13:26;;;;;;;;;;;21.50;77.10;;;;;;5113103;28;19915;-56
2023/09/28 09:15:52;;;;;;;;;;;21.50;76.90;;;;;;5113299;28;19911;-56
2023/09/28 09:18:20;;;;;;;;;;;21.60;76.80;;;;;;5094794;28;19915;-56
2023/09/28 09:20:46;;;;;;;;;;;21.60;76.60;;;;;;5112990;28;19911;-56
2023/09/28 09:23:12;;;;;;;;;;;21.60;76.60;;;;;;5112912;28;20383;-56
2023/09/28 09:25:41;;;;;;;;;;;21.70;76.50;;;;;;5112948;28;19908;-55
2023/09/28 09:28:06;;;;;;;;;;;21.70;76.60;;;;;;5112746;28;19908;-55
2023/09/28 09:30:38;;;;;;;;;;;21.70;76.50;;;;;;5112705;28;19915;-56
2023/09/28 09:33:06;;;;;;;;;;;21.70;76.60;;;;;;5112812;28;19914;-55
2023/09/28 09:35:33;;;;;;;;;;;21.70;76.80;;;;;;5112594;28;19922;-54
2023/09/28 09:37:58;;;;;;;;;;;21.70;76.90;;;;;;5112694;28;19965;-54
2023/09/28 09:40:25;;;;;;;;;;;21.70;76.70;;;;;;5094461;28;20283;-54
2023/09/28 09:42:51;;;;;;;;;;;21.70;76.50;;;;;;5112688;28;19911;-53
2023/09/28 09:45:18;;;;;;;;;;;21.70;76.70;;;;;;5112570;28;19961;-54
2023/09/28 09:47:47;;;;;;;;;;;21.80;76.60;;;;;;5112618;28;19957;-54
2023/09/28 09:50:13;;;;;;;;;;;21.70;76.50;;;;;;5112423;28;19914;-54
2023/09/28 09:52:40;;;;;;;;;;;21.80;76.70;;;;;;5112335;28;19915;-54
2023/09/28 09:55:08;;;;;;;;;;;21.80;76.60;;;;;;5115311;28;20383;-54
2023/09/28 09:57:35;;;;;;;;;;;21.80;76.50;;;;;;5116227;28;20291;-55
2023/09/28 10:00:01;;;;;;;;;;;21.80;76.60;;;;;;5097840;28;19944;-54
2023/09/28 10:02:28;;;;;;;;;;;21.80;76.50;;;;;;5115871;28;19919;-54
2023/09/28 10:04:56;;;;;;;;;;;21.80;76.50;;;;;;5116243;28;20402;-54
2023/09/28 10:07:24;;;;;;;;;;;21.80;76.40;;;;;;5116078;28;19908;-54
2023/09/28 10:09:50;;;;;;;;;;;21.90;76.60;;;;;;5115990;28;19912;-53
2023/09/28 10:12:15;;;;;;;;;;;21.90;76.50;;;;;;5115920;28;19919;-55
2023/09/28 10:14:41;;;;;;;;;;;21.90;76.40;;;;;;5115806;28;20328;-55
2023/09/28 10:17:07;;;;;;;;;;;21.90;76.10;;;;;;5097440;28;19981;-54
2023/09/28 10:19:32;;;;;;;;;;;21.90;76.20;;;;;;5097225;28;20257;-54
2023/09/28 10:21:58;;;;;;;;;;;21.90;76.20;;;;;;5097472;28;20283;-55
2023/09/28 10:24:30;;;;;;;;;;;21.90;76.30;;;;;;5115185;28;19908;-54
2023/09/28 10:26:56;;;;;;;;;;;21.90;76.30;;;;;;5095082;28;19912;-55
2023/09/28 10:29:32;;;;;;;;;;;22.00;76.10;;;;;;5095037;28;20027;-55
2023/09/28 10:31:57;;;;;;;;;;;22.10;75.90;;;;;;5095293;28;20307;-55
2023/09/28 10:34:30;;;;;;;;;;;22.00;75.90;;;;;;5095109;28;19934;-55
2023/09/28 10:37:04;;;;;;;;;;;22.00;76.10;;;;;;5077401;28;20002;-55
2023/09/28 10:39:30;;;;;;;;;;;22.10;75.90;;;;;;5095164;28;20318;-54
2023/09/28 10:41:59;;;;;;;;;;;22.10;75.80;;;;;;5077186;28;19908;-55
2023/09/28 10:44:24;;;;;;;;;;;22.10;75.50;;;;;;5076765;28;19955;-54
2023/09/28 10:46:50;;;;;;;;;;;22.10;75.50;;;;;;5094852;28;19913;-55
2023/09/28 10:49:23;;;;;;;;;;;22.20;75.30;;;;;;5094832;28;19961;-54
2023/09/28 10:51:48;;;;;;;;;;;22.20;75.30;;;;;;5094715;28;19969;-55
2023/09/28 10:54:14;;;;;;;;;;;22.10;75.30;;;;;;5094954;28;19909;-55
2023/09/28 10:56:39;;;;;;;;;;;22.10;75.30;;;;;;5114900;28;19939;-57
2023/09/28 10:59:10;;;;;;;;;;;22.20;75.30;;;;;;5115113;28;20006;-55
2023/09/28 11:01:39;;;;;;;;;;;22.20;75.20;;;;;;5115111;28;19911;-54
2023/09/28 11:04:05;;;;;;;;;;;22.20;75.10;;;;;;5114870;28;19915;-56
2023/09/28 11:06:30;;;;;;;;;;;22.20;75.10;;;;;;5113965;28;20359;-55
2023/09/28 11:08:57;;;;;;;;;;;22.20;75.20;;;;;;5115055;28;19999;-55
2023/09/28 11:11:23;;;;;;;;;;;22.20;75.20;;;;;;5114888;28;19908;-56
2023/09/28 11:13:48;;;;;;;;;;;22.20;75.30;;;;;;5115084;28;19931;-55
2023/09/28 11:16:16;;;;;;;;;;;22.30;75.10;;;;;;5114663;28;19957;-55
2023/09/28 11:18:41;;;;;;;;;;;22.30;75.00;;;;;;5115008;28;19915;-57
2023/09/28 11:21:07;;;;;;;;;;;22.30;75.00;;;;;;5114862;28;19911;-56
2023/09/28 11:23:32;;;;;;;;;;;22.40;74.90;;;;;;5096137;28;19907;-56
2023/09/28 11:25:58;;;;;;;;;;;22.40;74.60;;;;;;5114558;28;19915;-55
2023/09/28 11:28:23;;;;;;;;;;;22.40;74.60;;;;;;5114842;28;20264;-55
2023/09/28 11:31:08;;;;;;;;;;;22.40;74.70;;;;;;5114664;28;19931;-55
2023/09/28 11:33:34;;;;;;;;;;;22.50;74.70;;;;;;5096134;28;20375;-55
2023/09/28 11:36:00;;;;;;;;;;;22.50;74.60;;;;;;5114383;28;20276;-56
2023/09/28 11:38:25;;;;;;;;;;;22.50;74.70;;;;;;5114289;28;20283;-56
2023/09/28 11:40:54;;;;;;;;;;;22.50;74.70;;;;;;5114212;28;19998;-56
2023/09/28 11:43:20;;;;;;;;;;;22.50;74.60;;;;;;5096100;28;19930;-56
2023/09/28 11:45:46;;;;;;;;;;;22.60;74.60;;;;;;5114228;28;19912;-55
2023/09/28 11:48:12;;;;;;;;;;;22.50;74.60;;;;;;5114296;28;19907;-56
2023/09/28 11:50:37;;;;;;;;;;;22.50;74.60;;;;;;5095567;28;20368;-55
2023/09/28 11:53:07;;;;;;;;;;;22.50;74.80;;;;;;5114015;28;20371;-56
2023/09/28 11:55:32;;;;;;;;;;;22.40;74.90;;;;;;5113960;28;19933;-56
2023/09/28 11:57:59;;;;;;;;;;;22.40;76.00;;;;;;5113706;28;20367;-55
2023/09/28 12:00:24;;;;;;;;;;;22.40;75.20;;;;;;5114023;28;19957;-55
2023/09/28 12:02:50;;;;;;;;;;;22.40;75.00;;;;;;5114098;28;19920;-55
2023/09/28 12:05:17;;;;;;;;;;;22.40;75.20;;;;;;5113965;28;19911;-56
2023/09/28 12:07:42;;;;;;;;;;;22.40;75.20;;;;;;5113885;28;20065;-56
2023/09/28 12:10:14;;;;;;;;;;;22.40;75.10;;;;;;5095636;28;20009;-56
2023/09/28 12:12:40;;;;;;;;;;;22.40;75.20;;;;;;5113707;28;19919;-56
2023/09/28 12:15:10;;;;;;;;;;;22.40;75.10;;;;;;5113556;28;20010;-56
2023/09/28 12:17:39;;;;;;;;;;;22.50;74.80;;;;;;5113271;28;20268;-56
2023/09/28 12:20:06;;;;;;;;;;;22.50;74.20;;;;;;5095591;28;19915;-56
2023/09/28 12:22:32;;;;;;;;;;;22.50;74.30;;;;;;5113546;28;19908;-55
2023/09/28 12:24:58;;;;;;;;;;;22.50;74.00;;;;;;5113474;28;20320;-55
2023/09/28 12:27:24;;;;;;;;;;;22.50;74.20;;;;;;5113398;28;19908;-56
2023/09/28 12:29:50;;;;;;;;;;;22.50;74.20;;;;;;5113494;28;20287;-56
2023/09/28 12:32:16;;;;;;;;;;;22.50;74.30;;;;;;5113451;28;19995;-55
2023/09/28 12:34:41;;;;;;;;;;;22.50;74.30;;;;;;5113484;28;19999;-57
2023/09/28 12:37:07;;;;;;;;;;;22.50;74.10;;;;;;5113156;28;19965;-56
2023/09/28 12:39:33;;;;;;;;;;;22.50;74.20;;;;;;5113267;28;19914;-56
2023/09/28 12:41:59;;;;;;;;;;;22.50;74.90;;;;;;5113322;28;19908;-55
2023/09/28 12:44:25;;;;;;;;;;;22.50;74.00;;;;;;5113289;28;20340;-56
2023/09/28 12:46:51;;;;;;;;;;;22.50;74.60;;;;;;5113328;28;19907;-57
2023/09/28 12:49:18;;;;;;;;;;;22.50;73.90;;;;;;5113071;28;20410;-56
2023/09/28 12:51:46;;;;;;;;;;;22.50;74.00;;;;;;5112863;28;19958;-56
2023/09/28 12:54:14;;;;;;;;;;;22.40;74.20;;;;;;5113249;28;19907;-56
2023/09/28 12:56:40;;;;;;;;;;;22.40;74.30;;;;;;5094783;28;19916;-56
2023/09/28 12:59:06;;;;;;;;;;;22.50;74.40;;;;;;5113103;28;19912;-56
2023/09/28 13:01:31;;;;;;;;;;;22.50;74.30;;;;;;5112867;28;19930;-55
2023/09/28 13:03:59;;;;;;;;;;;22.50;74.20;;;;;;5113037;28;19908;-56
2023/09/28 13:06:25;;;;;;;;;;;22.60;74.20;;;;;;5094786;28;19930;-56
2023/09/28 13:08:50;;;;;;;;;;;22.60;74.00;;;;;;5113042;28;20350;-56
2023/09/28 13:11:18;;;;;;;;;;;22.60;73.90;;;;;;5113005;28;20321;-55
2023/09/28 13:13:43;;;;;;;;;;;22.60;74.00;;;;;;5113078;28;19907;-56
2023/09/28 13:16:09;;;;;;;;;;;22.70;73.80;;;;;;5112881;28;19923;-55
2023/09/28 13:18:34;;;;;;;;;;;22.70;73.70;;;;;;5113036;28;19991;-55
2023/09/28 13:21:00;;;;;;;;;;;22.60;73.50;;;;;;5112970;28;19914;-56
2023/09/28 13:23:25;;;;;;;;;;;22.60;73.30;;;;;;5112822;28;19912;-56
2023/09/28 13:25:52;;;;;;;;;;;22.60;73.40;;;;;;5112758;28;19908;-54
2023/09/28 13:28:17;;;;;;;;;;;22.60;73.80;;;;;;5112889;28;20360;-54
2023/09/28 13:30:43;;;;;;;;;;;22.60;73.50;;;;;;5116835;28;19923;-56
2023/09/28 13:33:09;;;;;;;;;;;22.60;73.50;;;;;;5116712;28;19908;-56
2023/09/28 13:35:35;;;;;;;;;;;22.60;73.60;;;;;;5116459;28;19915;-55
2023/09/28 13:38:01;;;;;;;;;;;22.60;73.30;;;;;;5116508;28;19908;-55
2023/09/28 13:40:32;;;;;;;;;;;22.60;73.30;;;;;;5116498;28;19912;-55
2023/09/28 13:42:59;;;;;;;;;;;22.60;73.50;;;;;;5123419;28;19907;-56
2023/09/28 13:45:28;;;;;;;;;;;22.60;73.50;;;;;;5116364;28;20320;-56
2023/09/28 13:47:53;;;;;;;;;;;22.70;73.40;;;;;;5116450;28;19915;-56
2023/09/28 13:50:19;;;;;;;;;;;22.70;73.30;;;;;;5098004;28;19908;-55
2023/09/28 13:52:45;;;;;;;;;;;22.80;73.20;;;;;;5116196;28;19955;-56
2023/09/28 13:55:15;;;;;;;;;;;22.80;72.60;;;;;;5116256;28;20350;-55
2023/09/28 13:57:42;;;;;;;;;;;22.80;72.90;;;;;;5097691;28;19961;-56
2023/09/28 14:00:13;;;;;;;;;;;22.70;73.00;;;;;;5098238;28;19935;-55
2023/09/28 14:02:41;;;;;;;;;;;22.70;73.40;;;;;;5097839;28;19911;-56
2023/09/28 14:05:07;;;;;;;;;;;22.60;73.50;;;;;;5116238;28;20367;-57
2023/09/28 14:07:33;;;;;;;;;;;22.60;73.80;;;;;;5097672;28;19952;-55
2023/09/28 14:09:58;;;;;;;;;;;22.60;73.60;;;;;;5116180;28;19907;-56
2023/09/28 14:12:25;;;;;;;;;;;22.60;73.70;;;;;;5116051;28;19908;-55